sensor_id;sensor_type;location;lat;lon;timestamp;pressure;altitude;pressure_sealevel;temperature;humidity
80629;BME280;69983;42.370;-71.210;2023-11-18T00:01:42;101026.98;;;23.58;37.19
80629;BME280;69983;42.370;-71.210;2023-11-18T00:03:42;101028.04;;;23.00;37.30
80629;BME280;69983;42.370;-71.210;2023-11-18T00:05:43;101025.32;;;23.01;37.31
80629;BME280;69983;42.370;-71.210;2023-11-18T00:07:43;101022.85;;;23.22;37.34
80629;BME280;69983;42.370;-71.210;2023-11-18T00:09:44;101026.77;;;23.54;37.23
80629;BME280;69983;42.370;-71.210;2023-11-18T00:11:45;101026.82;;;23.19;37.35
80629;BME280;69983;42.370;-71.210;2023-11-18T00:13:45;101025.90;;;22.89;37.45
80629;BME280;69983;42.370;-71.210;2023-11-18T00:15:46;101034.04;;;23.25;37.27
80629;BME280;69983;42.370;-71.210;2023-11-18T00:17:46;101031.88;;;23.23;37.30
80629;BME280;69983;42.370;-71.210;2023-11-18T00:19:47;101029.79;;;23.31;37.20
80629;BME280;69983;42.370;-71.210;2023-11-18T00:21:47;101026.67;;;23.01;37.27
80629;BME280;69983;42.370;-71.210;2023-11-18T00:23:47;101023.12;;;23.05;37.19
80629;BME280;69983;42.370;-71.210;2023-11-18T00:25:48;101022.89;;;23.08;37.16
80629;BME280;69983;42.370;-71.210;2023-11-18T00:27:48;101025.56;;;22.98;37.28
80629;BME280;69983;42.370;-71.210;2023-11-18T00:29:48;101022.92;;;23.04;37.19
80629;BME280;69983;42.370;-71.210;2023-11-18T00:31:48;101023.79;;;22.97;37.29
80629;BME280;69983;42.370;-71.210;2023-11-18T00:33:48;101023.93;;;22.75;37.27
80629;BME280;69983;42.370;-71.210;2023-11-18T00:35:48;101017.39;;;22.88;37.39
80629;BME280;69983;42.370;-71.210;2023-11-18T00:37:48;101008.67;;;22.96;37.29
80629;BME280;69983;42.370;-71.210;2023-11-18T00:39:49;101003.42;;;22.82;37.19
80629;BME280;69983;42.370;-71.210;2023-11-18T00:41:49;101009.41;;;22.91;37.35
80629;BME280;69983;42.370;-71.210;2023-11-18T00:43:49;101007.37;;;23.15;37.33
80629;BME280;69983;42.370;-71.210;2023-11-18T00:45:49;101000.86;;;22.69;37.30
80629;BME280;69983;42.370;-71.210;2023-11-18T00:47:49;100995.27;;;22.91;37.32
80629;BME280;69983;42.370;-71.210;2023-11-18T00:49:49;100990.98;;;22.74;37.55
80629;BME280;69983;42.370;-71.210;2023-11-18T00:51:49;100986.63;;;22.81;37.46
80629;BME280;69983;42.370;-71.210;2023-11-18T00:53:49;100984.39;;;23.09;37.41
80629;BME280;69983;42.370;-71.210;2023-11-18T00:55:51;100976.14;;;22.93;37.32
80629;BME280;69983;42.370;-71.210;2023-11-18T00:57:49;100972.22;;;22.75;37.55
80629;BME280;69983;42.370;-71.210;2023-11-18T00:59:49;100976.17;;;22.90;37.34
80629;BME280;69983;42.370;-71.210;2023-11-18T01:01:49;100966.07;;;22.66;37.34
80629;BME280;69983;42.370;-71.210;2023-11-18T01:03:50;100964.29;;;22.80;37.46
80629;BME280;69983;42.370;-71.210;2023-11-18T01:05:50;100967.51;;;22.83;37.43
80629;BME280;69983;42.370;-71.210;2023-11-18T01:07:50;100958.31;;;22.94;37.29
80629;BME280;69983;42.370;-71.210;2023-11-18T01:09:50;100954.53;;;23.03;37.15
80629;BME280;69983;42.370;-71.210;2023-11-18T01:11:50;100958.45;;;22.84;37.40
80629;BME280;69983;42.370;-71.210;2023-11-18T01:13:50;100958.64;;;23.14;37.32
80629;BME280;69983;42.370;-71.210;2023-11-18T01:15:51;100959.20;;;22.98;37.52
80629;BME280;69983;42.370;-71.210;2023-11-18T01:17:50;100962.88;;;23.13;37.63
80629;BME280;69983;42.370;-71.210;2023-11-18T01:19:50;100961.42;;;22.89;37.34
80629;BME280;69983;42.370;-71.210;2023-11-18T01:21:50;100962.19;;;22.98;37.23
80629;BME280;69983;42.370;-71.210;2023-11-18T01:23:50;100962.29;;;23.12;37.04
80629;BME280;69983;42.370;-71.210;2023-11-18T01:25:51;100963.84;;;22.96;37.24
80629;BME280;69983;42.370;-71.210;2023-11-18T01:27:51;100959.09;;;23.29;36.82
80629;BME280;69983;42.370;-71.210;2023-11-18T01:29:51;100956.86;;;23.01;37.16
80629;BME280;69983;42.370;-71.210;2023-11-18T01:31:51;100957.52;;;23.52;37.11
80629;BME280;69983;42.370;-71.210;2023-11-18T01:33:51;100963.41;;;22.87;37.33
80629;BME280;69983;42.370;-71.210;2023-11-18T01:35:51;100958.26;;;22.87;37.36
80629;BME280;69983;42.370;-71.210;2023-11-18T01:37:51;100957.36;;;23.21;37.26
80629;BME280;69983;42.370;-71.210;2023-11-18T01:39:51;100959.60;;;22.81;37.43
80629;BME280;69983;42.370;-71.210;2023-11-18T01:41:51;100954.78;;;23.24;37.51
80629;BME280;69983;42.370;-71.210;2023-11-18T01:43:51;100950.03;;;23.11;37.37
80629;BME280;69983;42.370;-71.210;2023-11-18T01:45:51;100942.94;;;23.08;37.08
80629;BME280;69983;42.370;-71.210;2023-11-18T01:47:51;100940.13;;;22.97;37.22
80629;BME280;69983;42.370;-71.210;2023-11-18T01:49:51;100936.36;;;23.25;37.19
80629;BME280;69983;42.370;-71.210;2023-11-18T01:51:52;100933.24;;;23.18;37.28
80629;BME280;69983;42.370;-71.210;2023-11-18T01:53:51;100928.35;;;22.89;37.34
80629;BME280;69983;42.370;-71.210;2023-11-18T01:55:52;100925.70;;;23.06;37.43
80629;BME280;69983;42.370;-71.210;2023-11-18T01:57:52;100922.31;;;23.22;37.23
80629;BME280;69983;42.370;-71.210;2023-11-18T01:59:52;100917.85;;;22.98;37.23
80629;BME280;69983;42.370;-71.210;2023-11-18T02:01:53;100916.48;;;22.92;37.28
80629;BME280;69983;42.370;-71.210;2023-11-18T02:03:52;100912.07;;;23.04;37.43
80629;BME280;69983;42.370;-71.210;2023-11-18T02:05:52;100908.35;;;22.80;37.44
80629;BME280;69983;42.370;-71.210;2023-11-18T02:07:52;100913.25;;;22.87;37.36
80629;BME280;69983;42.370;-71.210;2023-11-18T02:09:52;100910.94;;;23.16;37.30
80629;BME280;69983;42.370;-71.210;2023-11-18T02:11:54;100905.89;;;23.00;37.49
80629;BME280;69983;42.370;-71.210;2023-11-18T02:13:54;100903.47;;;23.31;37.12
80629;BME280;69983;42.370;-71.210;2023-11-18T02:15:54;100900.09;;;23.17;37.29
80629;BME280;69983;42.370;-71.210;2023-11-18T02:17:54;100896.48;;;23.23;37.19
80629;BME280;69983;42.370;-71.210;2023-11-18T02:19:53;100892.24;;;22.91;37.28
80629;BME280;69983;42.370;-71.210;2023-11-18T02:21:53;100889.88;;;22.94;37.25
80629;BME280;69983;42.370;-71.210;2023-11-18T02:23:53;100885.05;;;23.14;37.30
80629;BME280;69983;42.370;-71.210;2023-11-18T02:25:55;100882.85;;;22.77;37.48
80629;BME280;69983;42.370;-71.210;2023-11-18T02:27:53;100884.63;;;22.73;37.54
80629;BME280;69983;42.370;-71.210;2023-11-18T02:29:53;100880.87;;;23.12;37.65
80629;BME280;69983;42.370;-71.210;2023-11-18T02:32:00;100876.55;;;22.91;37.32
80629;BME280;69983;42.370;-71.210;2023-11-18T02:33:57;100878.60;;;23.43;37.25
80629;BME280;69983;42.370;-71.210;2023-11-18T02:35:54;100877.10;;;23.10;37.34
80629;BME280;69983;42.370;-71.210;2023-11-18T02:37:54;100876.27;;;22.65;37.62
80629;BME280;69983;42.370;-71.210;2023-11-18T02:39:58;100877.10;;;22.67;37.61
80629;BME280;69983;42.370;-71.210;2023-11-18T02:41:54;100875.52;;;23.06;37.43
80629;BME280;69983;42.370;-71.210;2023-11-18T02:43:53;100867.90;;;23.30;37.41
80629;BME280;69983;42.370;-71.210;2023-11-18T02:45:55;100868.61;;;22.96;37.23
80629;BME280;69983;42.370;-71.210;2023-11-18T02:47:54;100867.54;;;22.83;37.39
80629;BME280;69983;42.370;-71.210;2023-11-18T02:49:55;100865.44;;;23.38;37.32
80629;BME280;69983;42.370;-71.210;2023-11-18T02:51:53;100860.38;;;23.23;37.18
80629;BME280;69983;42.370;-71.210;2023-11-18T02:53:53;100859.48;;;22.85;37.37
80629;BME280;69983;42.370;-71.210;2023-11-18T02:55:54;100859.21;;;23.10;37.36
80629;BME280;69983;42.370;-71.210;2023-11-18T02:57:54;100857.33;;;22.91;37.29
80629;BME280;69983;42.370;-71.210;2023-11-18T02:59:54;100853.63;;;22.94;37.25
80629;BME280;69983;42.370;-71.210;2023-11-18T03:01:54;100847.81;;;22.99;37.20
80629;BME280;69983;42.370;-71.210;2023-11-18T03:03:54;100846.01;;;23.25;37.17
80629;BME280;69983;42.370;-71.210;2023-11-18T03:05:54;100843.28;;;23.38;37.28
80629;BME280;69983;42.370;-71.210;2023-11-18T03:07:55;100845.10;;;23.04;37.43
80629;BME280;69983;42.370;-71.210;2023-11-18T03:09:54;100844.94;;;23.38;37.32
80629;BME280;69983;42.370;-71.210;2023-11-18T03:11:54;100845.62;;;22.85;37.39
80629;BME280;69983;42.370;-71.210;2023-11-18T03:13:54;100841.35;;;22.74;37.53
80629;BME280;69983;42.370;-71.210;2023-11-18T03:15:54;100840.18;;;22.80;37.46
80629;BME280;69983;42.370;-71.210;2023-11-18T03:17:55;100837.20;;;23.39;37.31
80629;BME280;69983;42.370;-71.210;2023-11-18T03:19:55;100831.57;;;22.92;37.30
80629;BME280;69983;42.370;-71.210;2023-11-18T03:21:54;100828.20;;;23.15;37.30
80629;BME280;69983;42.370;-71.210;2023-11-18T03:23:54;100830.67;;;23.04;37.46
80629;BME280;69983;42.370;-71.210;2023-11-18T03:25:55;100829.68;;;23.09;37.38
80629;BME280;69983;42.370;-71.210;2023-11-18T03:27:55;100830.21;;;22.87;37.38
80629;BME280;69983;42.370;-71.210;2023-11-18T03:29:55;100832.35;;;22.90;37.33
80629;BME280;69983;42.370;-71.210;2023-11-18T03:31:56;100830.36;;;23.21;37.24
80629;BME280;69983;42.370;-71.210;2023-11-18T03:33:55;100828.22;;;22.86;37.34
80629;BME280;69983;42.370;-71.210;2023-11-18T03:35:55;100826.19;;;22.89;37.36
80629;BME280;69983;42.370;-71.210;2023-11-18T03:37:55;100819.82;;;22.77;37.51
80629;BME280;69983;42.370;-71.210;2023-11-18T03:39:55;100818.30;;;22.90;37.34
80629;BME280;69983;42.370;-71.210;2023-11-18T03:41:55;100813.27;;;23.06;37.14
80629;BME280;69983;42.370;-71.210;2023-11-18T03:43:55;100815.17;;;22.76;37.52
80629;BME280;69983;42.370;-71.210;2023-11-18T03:45:55;100809.47;;;22.91;37.33
80629;BME280;69983;42.370;-71.210;2023-11-18T03:47:55;100805.43;;;22.74;37.55
80629;BME280;69983;42.370;-71.210;2023-11-18T03:49:56;100799.31;;;23.11;37.07
80629;BME280;69983;42.370;-71.210;2023-11-18T03:51:56;100800.44;;;23.01;37.27
80629;BME280;69983;42.370;-71.210;2023-11-18T03:53:57;100800.23;;;23.33;37.21
80629;BME280;69983;42.370;-71.210;2023-11-18T03:55:57;100801.93;;;23.27;37.38
80629;BME280;69983;42.370;-71.210;2023-11-18T03:57:57;100791.78;;;23.12;37.29
80629;BME280;69983;42.370;-71.210;2023-11-18T03:59:58;100788.97;;;23.53;37.16
80629;BME280;69983;42.370;-71.210;2023-11-18T04:01:59;100788.69;;;23.45;37.26
80629;BME280;69983;42.370;-71.210;2023-11-18T04:04:00;100790.65;;;24.09;36.79
80629;BME280;69983;42.370;-71.210;2023-11-18T04:06:00;100793.85;;;23.33;37.16
80629;BME280;69983;42.370;-71.210;2023-11-18T04:08:01;100795.03;;;23.27;37.26
80629;BME280;69983;42.370;-71.210;2023-11-18T04:10:01;100791.56;;;23.10;37.49
80629;BME280;69983;42.370;-71.210;2023-11-18T04:12:01;100792.93;;;23.70;37.02
80629;BME280;69983;42.370;-71.210;2023-11-18T04:14:02;100793.35;;;23.68;37.06
80629;BME280;69983;42.370;-71.210;2023-11-18T04:16:03;100792.57;;;23.30;37.28
80629;BME280;69983;42.370;-71.210;2023-11-18T04:18:03;100790.50;;;23.50;37.02
80629;BME280;69983;42.370;-71.210;2023-11-18T04:20:04;100787.52;;;23.45;37.16
80629;BME280;69983;42.370;-71.210;2023-11-18T04:22:03;100784.50;;;23.56;36.94
80629;BME280;69983;42.370;-71.210;2023-11-18T04:24:04;100782.04;;;23.78;37.26
80629;BME280;69983;42.370;-71.210;2023-11-18T04:26:10;100780.82;;;23.38;37.22
80629;BME280;69983;42.370;-71.210;2023-11-18T04:28:05;100774.16;;;23.50;37.09
80629;BME280;69983;42.370;-71.210;2023-11-18T04:30:07;100767.64;;;23.85;36.68
80629;BME280;69983;42.370;-71.210;2023-11-18T04:32:06;100763.11;;;23.73;37.15
80629;BME280;69983;42.370;-71.210;2023-11-18T04:34:06;100759.46;;;23.76;37.15
80629;BME280;69983;42.370;-71.210;2023-11-18T04:36:09;100756.50;;;23.33;37.42
80629;BME280;69983;42.370;-71.210;2023-11-18T04:38:07;100754.75;;;23.35;37.39
80629;BME280;69983;42.370;-71.210;2023-11-18T04:40:09;100752.41;;;23.27;37.51
80629;BME280;69983;42.370;-71.210;2023-11-18T04:42:08;100745.02;;;23.71;36.99
80629;BME280;69983;42.370;-71.210;2023-11-18T04:44:08;100735.12;;;23.32;37.46
80629;BME280;69983;42.370;-71.210;2023-11-18T04:46:08;100729.80;;;23.22;37.29
80629;BME280;69983;42.370;-71.210;2023-11-18T04:48:08;100727.27;;;23.31;37.49
80629;BME280;69983;42.370;-71.210;2023-11-18T04:50:10;100730.02;;;23.58;37.14
80629;BME280;69983;42.370;-71.210;2023-11-18T04:52:10;100731.95;;;23.66;37.02
80629;BME280;69983;42.370;-71.210;2023-11-18T04:54:10;100727.59;;;24.39;36.78
80629;BME280;69983;42.370;-71.210;2023-11-18T04:56:11;100721.14;;;23.38;37.34
80629;BME280;69983;42.370;-71.210;2023-11-18T04:58:11;100720.34;;;23.53;37.20
80629;BME280;69983;42.370;-71.210;2023-11-18T05:00:14;100716.79;;;23.66;37.00
80629;BME280;69983;42.370;-71.210;2023-11-18T05:02:12;100714.30;;;23.65;37.05
80629;BME280;69983;42.370;-71.210;2023-11-18T05:04:13;100709.97;;;23.78;36.89
80629;BME280;69983;42.370;-71.210;2023-11-18T05:06:18;100712.01;;;23.67;36.77
80629;BME280;69983;42.370;-71.210;2023-11-18T05:08:19;100711.09;;;23.85;36.82
80629;BME280;69983;42.370;-71.210;2023-11-18T05:10:15;100709.27;;;24.01;36.92
80629;BME280;69983;42.370;-71.210;2023-11-18T05:12:15;100707.70;;;23.92;36.78
80629;BME280;69983;42.370;-71.210;2023-11-18T05:14:16;100710.14;;;24.15;36.52
80629;BME280;69983;42.370;-71.210;2023-11-18T05:16:16;100708.50;;;23.93;36.77
80629;BME280;69983;42.370;-71.210;2023-11-18T05:18:17;100710.25;;;23.97;36.76
80629;BME280;69983;42.370;-71.210;2023-11-18T05:20:17;100707.36;;;22.99;36.28
80629;BME280;69983;42.370;-71.210;2023-11-18T05:22:17;100704.57;;;23.40;34.53
80629;BME280;69983;42.370;-71.210;2023-11-18T05:24:18;100697.80;;;24.16;33.47
80629;BME280;69983;42.370;-71.210;2023-11-18T05:26:18;100693.32;;;24.01;33.20
80629;BME280;69983;42.370;-71.210;2023-11-18T05:28:19;100693.15;;;24.00;33.07
80629;BME280;69983;42.370;-71.210;2023-11-18T05:30:20;100687.02;;;25.75;33.25
80629;BME280;69983;42.370;-71.210;2023-11-18T05:32:19;100681.22;;;25.19;34.37
80629;BME280;69983;42.370;-71.210;2023-11-18T05:34:20;100680.34;;;24.78;34.96
80629;BME280;69983;42.370;-71.210;2023-11-18T05:36:21;100675.41;;;24.47;35.26
80629;BME280;69983;42.370;-71.210;2023-11-18T05:38:21;100670.87;;;24.32;35.34
80629;BME280;69983;42.370;-71.210;2023-11-18T05:40:21;100664.39;;;24.09;35.56
80629;BME280;69983;42.370;-71.210;2023-11-18T05:42:22;100663.38;;;24.31;35.57
80629;BME280;69983;42.370;-71.210;2023-11-18T05:44:23;100659.86;;;24.14;35.75
80629;BME280;69983;42.370;-71.210;2023-11-18T05:46:23;100659.82;;;24.30;35.52
80629;BME280;69983;42.370;-71.210;2023-11-18T05:48:23;100655.09;;;24.28;35.77
80629;BME280;69983;42.370;-71.210;2023-11-18T05:50:24;100653.55;;;23.82;36.15
80629;BME280;69983;42.370;-71.210;2023-11-18T05:52:24;100653.00;;;24.05;36.22
80629;BME280;69983;42.370;-71.210;2023-11-18T05:54:24;100648.72;;;23.59;36.84
80629;BME280;69983;42.370;-71.210;2023-11-18T05:56:25;100646.26;;;23.84;36.83
80629;BME280;69983;42.370;-71.210;2023-11-18T05:58:25;100641.98;;;23.63;37.02
80629;BME280;69983;42.370;-71.210;2023-11-18T06:00:26;100640.44;;;23.59;37.25
80629;BME280;69983;42.370;-71.210;2023-11-18T06:02:26;100633.16;;;24.03;36.88
80629;BME280;69983;42.370;-71.210;2023-11-18T06:04:31;100627.80;;;23.70;36.95
80629;BME280;69983;42.370;-71.210;2023-11-18T06:06:26;100625.04;;;23.63;37.10
80629;BME280;69983;42.370;-71.210;2023-11-18T06:08:27;100626.21;;;23.87;37.18
80629;BME280;69983;42.370;-71.210;2023-11-18T06:10:27;100622.38;;;23.54;37.33
80629;BME280;69983;42.370;-71.210;2023-11-18T06:12:27;100623.19;;;23.62;37.14
80629;BME280;69983;42.370;-71.210;2023-11-18T06:14:27;100619.10;;;23.73;37.01
80629;BME280;69983;42.370;-71.210;2023-11-18T06:16:28;100615.56;;;23.42;37.39
80629;BME280;69983;42.370;-71.210;2023-11-18T06:18:29;100615.06;;;23.34;37.61
80629;BME280;69983;42.370;-71.210;2023-11-18T06:20:29;100610.31;;;23.38;37.47
80629;BME280;69983;42.370;-71.210;2023-11-18T06:22:30;100609.37;;;23.05;37.90
80629;BME280;69983;42.370;-71.210;2023-11-18T06:24:30;100611.85;;;23.17;37.86
80629;BME280;69983;42.370;-71.210;2023-11-18T06:26:31;100610.13;;;23.65;37.46
80629;BME280;69983;42.370;-71.210;2023-11-18T06:28:31;100605.38;;;23.82;37.39
80629;BME280;69983;42.370;-71.210;2023-11-18T06:30:32;100603.14;;;23.68;37.21
80629;BME280;69983;42.370;-71.210;2023-11-18T06:32:32;100601.62;;;24.01;36.80
80629;BME280;69983;42.370;-71.210;2023-11-18T06:34:33;100601.57;;;24.06;36.74
80629;BME280;69983;42.370;-71.210;2023-11-18T06:36:33;100601.52;;;24.06;36.40
80629;BME280;69983;42.370;-71.210;2023-11-18T06:38:33;100599.77;;;23.91;36.41
80629;BME280;69983;42.370;-71.210;2023-11-18T06:40:34;100591.59;;;23.91;36.77
80629;BME280;69983;42.370;-71.210;2023-11-18T06:42:35;100582.92;;;23.86;36.86
80629;BME280;69983;42.370;-71.210;2023-11-18T06:44:35;100580.16;;;23.74;36.63
80629;BME280;69983;42.370;-71.210;2023-11-18T06:46:36;100582.60;;;23.58;36.86
80629;BME280;69983;42.370;-71.210;2023-11-18T06:48:35;100581.60;;;23.66;37.00
80629;BME280;69983;42.370;-71.210;2023-11-18T06:50:36;100579.51;;;23.87;36.71
80629;BME280;69983;42.370;-71.210;2023-11-18T06:52:37;100581.96;;;24.06;36.73
80629;BME280;69983;42.370;-71.210;2023-11-18T06:54:37;100584.76;;;23.78;36.80
80629;BME280;69983;42.370;-71.210;2023-11-18T06:56:39;100585.44;;;23.48;37.31
80629;BME280;69983;42.370;-71.210;2023-11-18T06:58:38;100583.67;;;23.71;37.19
80629;BME280;69983;42.370;-71.210;2023-11-18T07:00:38;100577.87;;;23.44;37.51
80629;BME280;69983;42.370;-71.210;2023-11-18T07:02:39;100568.26;;;23.31;37.69
80629;BME280;69983;42.370;-71.210;2023-11-18T07:04:38;100564.34;;;23.00;37.75
80629;BME280;69983;42.370;-71.210;2023-11-18T07:06:39;100564.97;;;23.61;37.35
80629;BME280;69983;42.370;-71.210;2023-11-18T07:08:40;100564.40;;;23.33;37.75
80629;BME280;69983;42.370;-71.210;2023-11-18T07:10:42;100564.96;;;23.26;37.58
80629;BME280;69983;42.370;-71.210;2023-11-18T07:12:41;100569.29;;;23.34;37.80
80629;BME280;69983;42.370;-71.210;2023-11-18T07:14:41;100568.21;;;23.73;37.33
80629;BME280;69983;42.370;-71.210;2023-11-18T07:16:41;100566.99;;;23.51;37.64
80629;BME280;69983;42.370;-71.210;2023-11-18T07:18:42;100562.28;;;23.32;37.86
80629;BME280;69983;42.370;-71.210;2023-11-18T07:20:43;100561.06;;;23.34;37.54
80629;BME280;69983;42.370;-71.210;2023-11-18T07:22:43;100551.84;;;23.24;37.68
80629;BME280;69983;42.370;-71.210;2023-11-18T07:24:43;100546.89;;;23.32;37.55
80629;BME280;69983;42.370;-71.210;2023-11-18T07:26:44;100549.55;;;22.95;37.74
80629;BME280;69983;42.370;-71.210;2023-11-18T07:28:43;100549.11;;;23.60;37.50
80629;BME280;69983;42.370;-71.210;2023-11-18T07:30:44;100535.63;;;22.87;38.13
80629;BME280;69983;42.370;-71.210;2023-11-18T07:32:44;100528.16;;;23.44;37.69
80629;BME280;69983;42.370;-71.210;2023-11-18T07:34:44;100526.38;;;23.17;38.10
80629;BME280;69983;42.370;-71.210;2023-11-18T07:36:44;100525.72;;;22.89;38.50
80629;BME280;69983;42.370;-71.210;2023-11-18T07:38:44;100524.79;;;23.39;37.81
80629;BME280;69983;42.370;-71.210;2023-11-18T07:40:45;100526.94;;;22.95;38.08
80629;BME280;69983;42.370;-71.210;2023-11-18T07:42:45;100530.73;;;22.74;38.72
80629;BME280;69983;42.370;-71.210;2023-11-18T07:44:45;100533.31;;;23.26;38.01
80629;BME280;69983;42.370;-71.210;2023-11-18T07:46:45;100534.07;;;23.17;38.13
80629;BME280;69983;42.370;-71.210;2023-11-18T07:48:45;100535.46;;;23.41;37.81
80629;BME280;69983;42.370;-71.210;2023-11-18T07:50:47;100524.16;;;23.25;38.01
80629;BME280;69983;42.370;-71.210;2023-11-18T07:52:45;100518.32;;;23.08;37.95
80629;BME280;69983;42.370;-71.210;2023-11-18T07:54:45;100507.99;;;22.30;38.66
80629;BME280;69983;42.370;-71.210;2023-11-18T07:56:45;100499.55;;;22.96;38.47
80629;BME280;69983;42.370;-71.210;2023-11-18T07:58:46;100492.28;;;22.42;38.83
80629;BME280;69983;42.370;-71.210;2023-11-18T08:00:46;100489.31;;;22.69;38.77
80629;BME280;69983;42.370;-71.210;2023-11-18T08:02:46;100492.76;;;23.14;38.22
80629;BME280;69983;42.370;-71.210;2023-11-18T08:04:46;100496.89;;;22.97;38.45
80629;BME280;69983;42.370;-71.210;2023-11-18T08:06:48;100506.27;;;23.10;38.19
80629;BME280;69983;42.370;-71.210;2023-11-18T08:08:46;100504.13;;;22.97;38.51
80629;BME280;69983;42.370;-71.210;2023-11-18T08:10:46;100497.79;;;22.91;38.59
80629;BME280;69983;42.370;-71.210;2023-11-18T08:12:46;100494.83;;;23.02;38.55
80629;BME280;69983;42.370;-71.210;2023-11-18T08:14:46;100491.29;;;23.08;38.50
80629;BME280;69983;42.370;-71.210;2023-11-18T08:16:46;100491.49;;;23.06;38.55
80629;BME280;69983;42.370;-71.210;2023-11-18T08:18:46;100484.45;;;22.69;38.75
80629;BME280;69983;42.370;-71.210;2023-11-18T08:20:47;100482.55;;;22.73;39.03
80629;BME280;69983;42.370;-71.210;2023-11-18T08:22:48;100486.01;;;23.16;38.43
80629;BME280;69983;42.370;-71.210;2023-11-18T08:24:47;100482.97;;;23.07;38.59
80629;BME280;69983;42.370;-71.210;2023-11-18T08:26:47;100480.51;;;22.94;38.77
80629;BME280;69983;42.370;-71.210;2023-11-18T08:28:47;100486.42;;;22.70;39.17
80629;BME280;69983;42.370;-71.210;2023-11-18T08:30:47;100491.02;;;22.94;38.85
80629;BME280;69983;42.370;-71.210;2023-11-18T08:32:47;100481.15;;;23.06;38.70
80629;BME280;69983;42.370;-71.210;2023-11-18T08:34:52;100473.87;;;23.14;38.68
80629;BME280;69983;42.370;-71.210;2023-11-18T08:36:47;100468.21;;;22.75;38.89
80629;BME280;69983;42.370;-71.210;2023-11-18T08:38:49;100473.36;;;22.98;38.87
80629;BME280;69983;42.370;-71.210;2023-11-18T08:40:47;100474.48;;;22.79;38.93
80629;BME280;69983;42.370;-71.210;2023-11-18T08:42:48;100478.60;;;22.55;39.39
80629;BME280;69983;42.370;-71.210;2023-11-18T08:44:47;100477.09;;;22.88;39.10
80629;BME280;69983;42.370;-71.210;2023-11-18T08:46:48;100468.58;;;22.70;39.36
80629;BME280;69983;42.370;-71.210;2023-11-18T08:48:47;100457.22;;;22.64;39.44
80629;BME280;69983;42.370;-71.210;2023-11-18T08:50:48;100456.30;;;22.66;39.57
80629;BME280;69983;42.370;-71.210;2023-11-18T08:52:48;100454.56;;;22.77;39.40
80629;BME280;69983;42.370;-71.210;2023-11-18T08:54:48;100457.24;;;22.98;39.07
80629;BME280;69983;42.370;-71.210;2023-11-18T08:56:48;100448.80;;;22.75;39.14
80629;BME280;69983;42.370;-71.210;2023-11-18T08:58:48;100437.58;;;22.97;39.12
80629;BME280;69983;42.370;-71.210;2023-11-18T09:00:49;100426.46;;;22.95;39.11
80629;BME280;69983;42.370;-71.210;2023-11-18T09:02:48;100424.33;;;23.00;39.00
80629;BME280;69983;42.370;-71.210;2023-11-18T09:04:48;100416.18;;;23.02;39.00
80629;BME280;69983;42.370;-71.210;2023-11-18T09:06:49;100411.21;;;22.89;39.14
80629;BME280;69983;42.370;-71.210;2023-11-18T09:08:49;100409.82;;;22.52;39.37
80629;BME280;69983;42.370;-71.210;2023-11-18T09:10:48;100407.07;;;22.93;39.06
80629;BME280;69983;42.370;-71.210;2023-11-18T09:12:49;100407.70;;;22.61;39.13
80629;BME280;69983;42.370;-71.210;2023-11-18T09:14:49;100413.46;;;22.74;38.96
80629;BME280;69983;42.370;-71.210;2023-11-18T09:16:48;100410.91;;;22.85;39.15
80629;BME280;69983;42.370;-71.210;2023-11-18T09:18:49;100407.96;;;22.50;38.93
80629;BME280;69983;42.370;-71.210;2023-11-18T09:20:49;100405.53;;;22.63;39.07
80629;BME280;69983;42.370;-71.210;2023-11-18T09:22:49;100403.13;;;22.97;38.94
80629;BME280;69983;42.370;-71.210;2023-11-18T09:24:50;100412.75;;;22.28;39.54
80629;BME280;69983;42.370;-71.210;2023-11-18T09:26:54;100416.39;;;22.26;39.31
80629;BME280;69983;42.370;-71.210;2023-11-18T09:28:49;100419.10;;;22.75;39.00
80629;BME280;69983;42.370;-71.210;2023-11-18T09:30:49;100413.78;;;22.96;39.04
80629;BME280;69983;42.370;-71.210;2023-11-18T09:32:49;100413.75;;;22.74;39.39
80629;BME280;69983;42.370;-71.210;2023-11-18T09:34:49;100411.24;;;22.55;39.35
80629;BME280;69983;42.370;-71.210;2023-11-18T09:36:49;100407.57;;;22.54;39.43
80629;BME280;69983;42.370;-71.210;2023-11-18T09:38:49;100410.66;;;22.77;39.46
80629;BME280;69983;42.370;-71.210;2023-11-18T09:40:52;100418.12;;;22.40;39.29
80629;BME280;69983;42.370;-71.210;2023-11-18T09:42:50;100413.19;;;21.82;40.02
80629;BME280;69983;42.370;-71.210;2023-11-18T09:44:50;100416.08;;;22.62;39.57
80629;BME280;69983;42.370;-71.210;2023-11-18T09:46:54;100413.29;;;22.25;39.75
80629;BME280;69983;42.370;-71.210;2023-11-18T09:48:51;100414.03;;;22.81;39.29
80629;BME280;69983;42.370;-71.210;2023-11-18T09:50:51;100411.47;;;22.94;39.41
80629;BME280;69983;42.370;-71.210;2023-11-18T09:52:54;100407.36;;;22.21;39.73
80629;BME280;69983;42.370;-71.210;2023-11-18T09:54:56;100402.35;;;22.39;39.47
80629;BME280;69983;42.370;-71.210;2023-11-18T09:56:55;100396.79;;;22.53;39.63
80629;BME280;69983;42.370;-71.210;2023-11-18T09:58:59;100392.20;;;22.47;39.72
80629;BME280;69983;42.370;-71.210;2023-11-18T10:00:57;100390.11;;;22.36;39.54
80629;BME280;69983;42.370;-71.210;2023-11-18T10:02:51;100393.47;;;22.17;39.79
80629;BME280;69983;42.370;-71.210;2023-11-18T10:04:51;100395.56;;;22.39;39.56
80629;BME280;69983;42.370;-71.210;2023-11-18T10:06:52;100393.06;;;22.03;39.99
80629;BME280;69983;42.370;-71.210;2023-11-18T10:08:51;100387.65;;;22.24;40.04
80629;BME280;69983;42.370;-71.210;2023-11-18T10:10:51;100382.69;;;22.47;39.78
80629;BME280;69983;42.370;-71.210;2023-11-18T10:12:51;100376.33;;;22.25;39.74